createdAt,value
2023-02-21T00:02:12.154Z,5.43
2023-02-21T00:04:57.594Z,6.00
2023-02-21T00:07:42.788Z,5.60
2023-02-21T00:10:31.771Z,5.03
2023-02-21T00:13:17.661Z,6.35
2023-02-21T00:16:02.994Z,7.07
2023-02-21T00:18:52.949Z,5.70
2023-02-21T00:21:38.307Z,5.95
2023-02-21T00:24:24.002Z,6.20
2023-02-21T00:27:09.183Z,6.15
2023-02-21T00:29:54.452Z,5.88
2023-02-21T00:32:39.619Z,6.25
2023-02-21T00:35:24.895Z,7.80
2023-02-21T00:38:11.245Z,6.57
2023-02-21T00:40:56.406Z,6.63
2023-02-21T00:43:52.116Z,6.40
2023-02-21T00:46:37.391Z,5.72
2023-02-21T00:49:23.607Z,5.63
2023-02-21T00:52:09.231Z,6.55
2023-02-21T00:54:54.566Z,6.90
2023-02-21T00:57:41.012Z,5.43
2023-02-21T01:00:28.299Z,6.72
2023-02-21T01:03:13.462Z,5.32
2023-02-21T01:05:58.618Z,6.35
2023-02-21T01:08:47.145Z,7.43
2023-02-21T01:11:38.059Z,6.72
2023-02-21T01:14:23.562Z,5.53
2023-02-21T01:17:13.430Z,6.35
2023-02-21T01:20:00.521Z,6.80
2023-02-21T01:22:46.324Z,6.28
2023-02-21T01:25:33.312Z,5.65
2023-02-21T01:28:19.013Z,5.72
2023-02-21T01:31:04.278Z,6.28
2023-02-21T01:33:54.951Z,6.45
2023-02-21T01:36:40.108Z,5.93
2023-02-21T01:39:25.368Z,5.97
2023-02-21T01:42:11.283Z,5.95
2023-02-21T01:44:59.166Z,6.85
2023-02-21T01:47:45.005Z,6.45
2023-02-21T01:50:50.851Z,6.25
2023-02-21T01:53:41.621Z,6.88
2023-02-21T01:56:28.111Z,6.45
2023-02-21T01:59:17.283Z,6.45
2023-02-21T02:02:24.335Z,6.72
2023-02-21T02:05:11.088Z,7.57
2023-02-21T02:07:56.733Z,6.07
2023-02-21T02:10:42.513Z,5.53
2023-02-21T02:13:33.883Z,6.93
2023-02-21T02:16:11.200Z,6.72
2023-02-21T02:18:51.365Z,6.25
2023-02-21T02:21:54.632Z,5.85
2023-02-21T02:24:39.449Z,6.68
2023-02-21T02:27:26.524Z,6.65
2023-02-21T02:30:11.768Z,6.75
2023-02-21T02:33:01.488Z,6.68
2023-02-21T02:35:32.311Z,6.32
2023-02-21T02:38:11.270Z,6.25
2023-02-21T02:41:05.956Z,6.22
2023-02-21T02:43:41.776Z,5.95
2023-02-21T02:46:14.700Z,6.63
2023-02-21T02:48:47.148Z,6.65
2023-02-21T02:51:15.924Z,5.93
2023-02-21T02:53:44.387Z,6.35
2023-02-21T02:56:16.221Z,5.97
2023-02-21T02:58:51.433Z,6.43
2023-02-21T03:01:48.771Z,6.40
2023-02-21T03:04:45.485Z,6.13
2023-02-21T03:08:03.637Z,6.38
2023-02-21T03:10:48.465Z,5.57
2023-02-21T03:13:21.122Z,6.65
2023-02-21T03:16:20.809Z,5.97
2023-02-21T03:19:12.198Z,6.47
2023-02-21T03:21:43.561Z,6.00
2023-02-21T03:24:13.619Z,6.70
2023-02-21T03:26:43.672Z,6.32
2023-02-21T03:29:34.655Z,6.78
2023-02-21T03:32:12.433Z,6.82
2023-02-21T03:34:40.363Z,7.15
2023-02-21T03:37:20.626Z,6.90
2023-02-21T03:39:47.239Z,7.38
2023-02-21T03:42:13.822Z,7.20
2023-02-21T03:44:41.403Z,7.00
2023-02-21T03:47:08.160Z,7.10
2023-02-21T03:49:34.859Z,7.75
2023-02-21T03:52:01.517Z,7.57
2023-02-21T03:54:28.050Z,7.97
2023-02-21T03:56:57.683Z,8.93
2023-02-21T03:59:26.306Z,7.90
2023-02-21T04:01:53.670Z,8.10
2023-02-21T04:04:21.221Z,7.10
2023-02-21T04:06:54.524Z,6.50
2023-02-21T04:09:21.261Z,7.55
2023-02-21T04:11:48.760Z,6.95
2023-02-21T04:14:16.227Z,7.15
2023-02-21T04:16:43.051Z,7.05
2023-02-21T04:19:10.146Z,7.00
2023-02-21T04:21:36.872Z,6.72
2023-02-21T04:24:04.756Z,6.55
2023-02-21T04:26:32.380Z,6.80
2023-02-21T04:28:59.014Z,6.72
2023-02-21T04:31:25.973Z,6.25
2023-02-21T04:34:02.460Z,7.25
2023-02-21T04:36:33.498Z,7.13
2023-02-21T04:39:00.387Z,6.72
2023-02-21T04:41:26.982Z,7.40
2023-02-21T04:43:54.019Z,7.43
2023-02-21T04:46:20.864Z,6.65
2023-02-21T04:48:50.327Z,7.30
2023-02-21T04:51:20.001Z,6.30
2023-02-21T04:53:48.618Z,7.60
2023-02-21T04:56:17.673Z,7.90
2023-02-21T04:58:45.664Z,8.20
2023-02-21T05:01:13.435Z,7.88
2023-02-21T05:03:40.509Z,8.40
2023-02-21T05:06:07.583Z,7.63
2023-02-21T05:08:35.794Z,7.10
2023-02-21T05:11:03.309Z,7.30
2023-02-21T05:13:30.051Z,7.53
2023-02-21T05:15:56.695Z,7.88
2023-02-21T05:18:26.791Z,7.47
2023-02-21T05:20:53.359Z,7.82
2023-02-21T05:23:33.794Z,7.93
2023-02-21T05:26:05.167Z,8.25
2023-02-21T05:28:32.190Z,8.27
2023-02-21T05:31:00.960Z,9.18
2023-02-21T05:33:27.900Z,7.68
2023-02-21T05:35:54.959Z,8.10
2023-02-21T05:38:23.811Z,8.52
2023-02-21T05:40:51.058Z,7.93
2023-02-21T05:43:18.240Z,7.80
2023-02-21T05:45:45.109Z,8.55
2023-02-21T05:48:12.177Z,8.73
2023-02-21T05:50:39.656Z,8.60
2023-02-21T05:53:10.349Z,8.00
2023-02-21T05:55:37.607Z,8.05
2023-02-21T05:58:04.432Z,9.65
2023-02-21T06:00:31.931Z,7.95
2023-02-21T06:02:58.424Z,8.57
2023-02-21T06:05:24.956Z,8.45
2023-02-21T06:07:52.212Z,8.90
2023-02-21T06:10:19.685Z,13.23
2023-02-21T06:12:46.516Z,9.18
2023-02-21T06:15:13.304Z,9.05
2023-02-21T06:17:41.758Z,9.48
2023-02-21T06:20:12.771Z,8.35
2023-02-21T06:22:39.432Z,8.57
2023-02-21T06:25:06.640Z,8.82
2023-02-21T06:27:33.503Z,8.43
2023-02-21T06:30:00.160Z,10.07
2023-02-21T06:32:27.736Z,8.40
2023-02-21T06:34:54.646Z,9.35
2023-02-21T06:37:21.319Z,8.18
2023-02-21T06:39:48.022Z,8.30
2023-02-21T06:42:16.306Z,9.07
2023-02-21T06:44:44.670Z,8.80
2023-02-21T06:47:11.412Z,8.90
2023-02-21T06:49:37.951Z,8.55
2023-02-21T06:52:04.991Z,9.63
2023-02-21T06:54:31.559Z,9.43
2023-02-21T06:56:59.872Z,9.40
2023-02-21T06:59:26.550Z,9.65
2023-02-21T07:01:53.064Z,9.70
2023-02-21T07:04:19.734Z,10.55
2023-02-21T07:06:46.366Z,11.23
2023-02-21T07:09:13.407Z,8.88
2023-02-21T07:11:40.638Z,9.23
2023-02-21T07:14:07.785Z,9.43
2023-02-21T07:16:34.291Z,8.70
2023-02-21T07:19:00.858Z,10.20
2023-02-21T07:21:27.449Z,10.02
2023-02-21T07:23:54.321Z,9.63
2023-02-21T07:26:20.834Z,9.60
2023-02-21T07:28:49.015Z,9.73
2023-02-21T07:31:19.281Z,9.15
2023-02-21T07:33:46.300Z,9.90
2023-02-21T07:36:12.979Z,9.95
2023-02-21T07:38:39.958Z,9.35
2023-02-21T07:41:06.563Z,9.80
2023-02-21T07:43:33.299Z,10.05
2023-02-21T07:46:00.536Z,11.65
2023-02-21T07:48:27.303Z,13.13
2023-02-21T07:50:53.943Z,11.48
2023-02-21T07:53:20.526Z,10.18
2023-02-21T07:55:47.143Z,11.60
2023-02-21T07:58:13.705Z,11.20
2023-02-21T08:00:40.790Z,11.77
2023-02-21T08:03:07.862Z,11.88
2023-02-21T08:05:34.413Z,11.70
2023-02-21T08:08:01.039Z,12.02
2023-02-21T08:10:28.466Z,11.80
2023-02-21T08:13:01.928Z,12.23
2023-02-21T08:15:29.436Z,11.75
2023-02-21T08:17:56.172Z,12.50
2023-02-21T08:20:22.786Z,11.68
2023-02-21T08:22:49.381Z,12.35
2023-02-21T08:25:16.533Z,11.85
2023-02-21T08:27:44.176Z,12.02
2023-02-21T08:30:14.593Z,13.98
2023-02-21T08:32:41.843Z,14.10
2023-02-21T08:35:08.681Z,12.52
2023-02-21T08:37:37.338Z,12.60
2023-02-21T08:40:04.830Z,12.50
2023-02-21T08:42:31.364Z,12.57
2023-02-21T08:44:57.996Z,11.77
2023-02-21T08:47:24.773Z,12.75
2023-02-21T08:49:51.609Z,13.15
2023-02-21T08:52:19.617Z,13.27
2023-02-21T08:54:46.124Z,12.68
2023-02-21T08:57:13.662Z,13.10
2023-02-21T08:59:45.155Z,12.50
2023-02-21T09:02:17.431Z,12.65
2023-02-21T09:04:45.095Z,13.35
2023-02-21T09:07:20.123Z,14.23
2023-02-21T09:09:47.026Z,13.40
2023-02-21T09:12:13.907Z,12.38
2023-02-21T09:14:42.389Z,13.65
2023-02-21T09:17:10.762Z,12.88
2023-02-21T09:19:37.704Z,13.95
2023-02-21T09:22:08.063Z,13.35
2023-02-21T09:24:34.654Z,12.98
2023-02-21T09:27:05.338Z,13.57
2023-02-21T09:29:44.048Z,13.13
2023-02-21T09:32:13.179Z,12.90
2023-02-21T09:34:39.818Z,13.50
2023-02-21T09:37:06.705Z,12.32
2023-02-21T09:39:33.233Z,12.80
2023-02-21T09:41:59.863Z,13.27
2023-02-21T09:44:28.638Z,13.02
2023-02-21T09:47:00.187Z,11.38
2023-02-21T09:49:40.356Z,12.30
2023-02-21T09:52:19.886Z,12.07
2023-02-21T09:54:54.787Z,12.05
2023-02-21T09:57:21.367Z,12.48
2023-02-21T09:59:49.556Z,11.90
2023-02-21T10:02:44.141Z,11.43
2023-02-21T10:08:09.119Z,11.13
2023-02-21T10:10:45.552Z,11.80
2023-02-21T10:13:43.220Z,10.77
2023-02-21T10:16:26.162Z,10.18
2023-02-21T10:19:07.462Z,10.98
2023-02-21T10:21:38.504Z,10.23
2023-02-21T10:24:13.612Z,11.85
2023-02-21T10:26:44.015Z,11.00
2023-02-21T10:29:55.644Z,10.45
2023-02-21T10:32:26.202Z,11.77
2023-02-21T10:34:55.015Z,11.02
2023-02-21T10:37:33.773Z,10.73
2023-02-21T10:40:28.335Z,9.27
2023-02-21T10:45:58.397Z,8.65
2023-02-21T10:48:29.208Z,9.55
2023-02-21T10:51:17.110Z,9.32
2023-02-21T10:53:46.492Z,9.35
2023-02-21T10:56:16.761Z,9.02
2023-02-21T10:59:00.295Z,9.27
2023-02-21T11:01:26.878Z,10.02
2023-02-21T11:03:59.016Z,9.73
2023-02-21T11:06:31.702Z,7.97
2023-02-21T11:08:59.278Z,11.98
2023-02-21T11:11:37.841Z,9.98
2023-02-21T11:14:23.442Z,7.70
2023-02-21T11:17:23.710Z,9.52
2023-02-21T11:19:56.024Z,10.10
2023-02-21T11:22:35.094Z,7.60
2023-02-21T11:25:23.014Z,5.53
2023-02-21T11:28:20.140Z,4.28
2023-02-21T11:31:08.840Z,4.55
2023-02-21T11:33:51.637Z,4.70
2023-02-21T11:36:21.131Z,4.53
2023-02-21T11:39:02.940Z,4.55
2023-02-21T11:41:37.045Z,4.38
2023-02-21T11:44:23.623Z,4.10
2023-02-21T11:46:58.067Z,3.95
2023-02-21T11:49:35.234Z,3.30
2023-02-21T11:52:13.029Z,3.45
2023-02-21T11:54:40.558Z,2.60
2023-02-21T11:57:33.858Z,2.47
2023-02-21T12:00:23.161Z,3.42
2023-02-21T12:03:14.779Z,3.58
2023-02-21T12:06:05.290Z,3.30
2023-02-21T12:08:44.583Z,2.40
2023-02-21T12:11:33.029Z,3.00
2023-02-21T12:14:27.541Z,2.45
2023-02-21T12:17:04.833Z,2.53
2023-02-21T12:19:50.085Z,2.38
2023-02-21T12:23:06.638Z,2.55
2023-02-21T12:25:52.820Z,2.40
2023-02-21T12:28:44.456Z,2.30
2023-02-21T12:31:23.292Z,2.20
2023-02-21T12:34:14.935Z,2.17
2023-02-21T12:36:59.530Z,2.17
2023-02-21T12:39:44.493Z,2.40
2023-02-21T12:42:40.724Z,2.30
2023-02-21T12:45:16.462Z,2.10
2023-02-21T12:47:55.106Z,2.00
2023-02-21T12:50:27.181Z,2.08
2023-02-21T12:53:17.512Z,2.40
2023-02-21T12:55:52.752Z,1.83
2023-02-21T12:58:29.981Z,2.00
2023-02-21T13:01:10.691Z,1.98
2023-02-21T13:04:18.000Z,1.95
2023-02-21T13:06:51.349Z,1.77
2023-02-21T13:09:29.691Z,2.05
2023-02-21T13:12:11.139Z,1.90
2023-02-21T13:14:45.292Z,1.92
2023-02-21T13:17:17.301Z,1.67
2023-02-21T13:19:54.930Z,4.35
2023-02-21T13:22:56.063Z,1.77
2023-02-21T13:25:56.593Z,1.90
2023-02-21T13:28:29.889Z,1.67
2023-02-21T13:31:02.307Z,1.60
2023-02-21T13:33:44.591Z,1.38
2023-02-21T13:36:38.570Z,1.60
2023-02-21T13:39:31.708Z,2.70
2023-02-21T13:42:17.725Z,1.35
2023-02-21T13:44:55.214Z,1.00
2023-02-21T13:47:23.443Z,1.58
2023-02-21T13:50:00.341Z,1.17
2023-02-21T13:52:32.865Z,1.20
2023-02-21T13:55:11.682Z,1.35
2023-02-21T13:57:41.166Z,1.05
2023-02-21T14:00:25.882Z,1.08
2023-02-21T14:03:12.535Z,1.30
2023-02-21T14:05:45.128Z,1.30
2023-02-21T14:08:18.820Z,1.20
2023-02-21T14:13:24.239Z,1.20
2023-02-21T14:15:58.792Z,19.17
2023-02-21T14:18:29.307Z,1.42
2023-02-21T14:20:57.976Z,1.35
2023-02-21T14:23:36.245Z,1.33
2023-02-21T14:26:04.889Z,1.40
2023-02-21T14:28:51.412Z,0.93
2023-02-21T14:31:50.946Z,1.45
2023-02-21T14:34:37.281Z,1.40
2023-02-21T14:37:29.438Z,1.33
2023-02-21T14:40:00.662Z,1.02
2023-02-21T14:42:37.639Z,1.20
2023-02-21T14:45:22.754Z,1.20
2023-02-21T14:48:24.565Z,1.48
2023-02-21T14:51:27.175Z,1.88
2023-02-21T14:53:59.802Z,1.40
2023-02-21T14:56:50.203Z,2.00
2023-02-21T15:00:02.343Z,1.30
2023-02-21T15:02:47.193Z,1.20
2023-02-21T15:05:28.719Z,1.92
2023-02-21T15:08:05.306Z,2.42
2023-02-21T15:10:43.858Z,1.60
2023-02-21T15:13:31.373Z,1.73
2023-02-21T15:16:01.618Z,2.40
2023-02-21T15:18:36.850Z,1.60
2023-02-21T15:21:18.401Z,2.38
2023-02-21T15:23:47.112Z,1.52
2023-02-21T15:26:27.354Z,2.30
2023-02-21T15:29:06.087Z,1.73
2023-02-21T15:31:41.094Z,1.60
2023-02-21T15:34:20.358Z,1.48
2023-02-21T15:36:50.602Z,1.50
2023-02-21T15:39:40.119Z,2.05
2023-02-21T15:42:10.549Z,1.83
2023-02-21T15:44:59.754Z,1.92
2023-02-21T15:47:30.492Z,2.00
2023-02-21T15:50:24.632Z,2.00
2023-02-21T15:52:56.118Z,1.25
2023-02-21T15:55:22.960Z,1.50
2023-02-21T15:58:06.760Z,1.80
2023-02-21T16:00:40.830Z,1.30
2023-02-21T16:03:46.825Z,2.00
2023-02-21T16:06:26.249Z,1.92
2023-02-21T16:08:59.031Z,2.33
2023-02-21T16:11:42.409Z,2.30
2023-02-21T16:14:38.385Z,2.00
2023-02-21T16:17:17.514Z,2.13
2023-02-21T16:19:48.203Z,1.77
2023-02-21T16:22:14.940Z,2.65
2023-02-21T16:24:41.845Z,3.05
2023-02-21T16:27:15.999Z,3.05
2023-02-21T16:29:49.758Z,3.58
2023-02-21T16:34:47.871Z,3.05
2023-02-21T16:37:14.867Z,4.15
2023-02-21T16:39:42.035Z,3.58
2023-02-21T16:42:08.938Z,3.50
2023-02-21T16:44:35.615Z,3.25
2023-02-21T16:47:02.209Z,4.55
2023-02-21T16:49:29.461Z,3.53
2023-02-21T16:51:56.165Z,3.88
2023-02-21T16:54:22.733Z,4.15
2023-02-21T16:56:52.186Z,3.35
2023-02-21T16:59:21.576Z,3.67
2023-02-21T17:01:48.328Z,3.05
2023-02-21T17:05:04.396Z,3.33
2023-02-21T17:07:31.362Z,2.85
2023-02-21T17:09:57.967Z,6.78
2023-02-21T17:12:24.479Z,4.05
2023-02-21T17:14:51.147Z,4.90
2023-02-21T17:17:17.861Z,4.60
2023-02-21T17:19:44.384Z,39.83
2023-02-21T17:22:10.888Z,9.05
2023-02-21T17:24:40.491Z,4.20
2023-02-21T17:27:07.086Z,13.10
2023-02-21T17:29:33.952Z,17.42
2023-02-21T17:32:06.830Z,9.82
2023-02-21T17:34:34.573Z,4.78
2023-02-21T17:37:01.377Z,3.70
2023-02-21T17:39:28.135Z,3.53
2023-02-21T17:41:55.177Z,4.03
2023-02-21T17:44:22.147Z,3.13
2023-02-21T17:46:54.653Z,5.28
2023-02-21T17:49:24.417Z,5.07
2023-02-21T17:51:54.254Z,4.10
2023-02-21T17:54:24.200Z,4.40
2023-02-21T17:56:51.159Z,4.45
2023-02-21T17:59:18.612Z,4.70
2023-02-21T18:01:45.607Z,5.88
2023-02-21T18:04:13.597Z,5.93
2023-02-21T18:06:41.414Z,5.90
2023-02-21T18:09:08.500Z,3.63
2023-02-21T18:11:37.851Z,3.63
2023-02-21T18:14:05.146Z,3.25
2023-02-21T18:16:31.746Z,2.60
2023-02-21T18:18:58.332Z,5.22
2023-02-21T18:21:25.031Z,15.60
2023-02-21T18:23:52.005Z,31.90
2023-02-21T18:26:18.718Z,17.15
2023-02-21T18:28:45.216Z,14.38
2023-02-21T18:31:18.592Z,12.18
2023-02-21T18:33:45.769Z,5.47
2023-02-21T18:36:12.362Z,4.75
2023-02-21T18:38:40.615Z,5.38
2023-02-21T18:41:16.891Z,5.78
2023-02-21T18:43:44.212Z,5.65
2023-02-21T18:46:12.538Z,5.05
2023-02-21T18:48:43.048Z,4.05
2023-02-21T18:51:11.076Z,2.90
2023-02-21T18:53:38.050Z,2.67
2023-02-21T18:56:10.373Z,4.25
2023-02-21T18:58:38.039Z,5.07
2023-02-21T19:01:05.898Z,4.40
2023-02-21T19:03:33.068Z,3.10
2023-02-21T19:06:00.143Z,2.60
2023-02-21T19:08:27.045Z,2.90
2023-02-21T19:10:53.823Z,2.40
2023-02-21T19:13:20.389Z,2.63
2023-02-21T19:15:46.860Z,2.40
2023-02-21T19:18:13.356Z,3.95
2023-02-21T19:20:40.104Z,3.05
2023-02-21T19:23:07.513Z,3.45
2023-02-21T19:25:33.969Z,3.10
2023-02-21T19:28:01.216Z,3.10
2023-02-21T19:30:36.851Z,3.40
2023-02-21T19:33:05.995Z,3.35
2023-02-21T19:35:33.644Z,3.38
2023-02-21T19:38:04.291Z,2.55
2023-02-21T19:40:31.006Z,13.75
2023-02-21T19:42:57.654Z,3.00
2023-02-21T19:45:24.692Z,2.50
2023-02-21T19:47:51.267Z,2.33
2023-02-21T19:50:17.955Z,2.92
2023-02-21T19:52:46.698Z,2.85
2023-02-21T19:55:15.100Z,3.00
2023-02-21T19:57:41.730Z,4.70
2023-02-21T20:00:12.873Z,4.50
2023-02-21T20:02:39.634Z,5.30
2023-02-21T20:05:06.608Z,4.72
2023-02-21T20:07:33.328Z,3.85
2023-02-21T20:09:59.935Z,3.97
2023-02-21T20:12:26.687Z,3.35
2023-02-21T20:14:56.038Z,2.97
2023-02-21T20:17:22.716Z,2.88
2023-02-21T20:19:49.915Z,3.33
2023-02-21T20:22:16.469Z,2.72
2023-02-21T20:24:46.633Z,3.83
2023-02-21T20:27:15.122Z,3.08
2023-02-21T20:29:42.081Z,2.88
2023-02-21T20:32:08.883Z,3.33
2023-02-21T20:34:39.169Z,3.45
2023-02-21T20:37:05.752Z,3.40
2023-02-21T20:39:34.894Z,4.25
2023-02-21T20:42:03.073Z,4.32
2023-02-21T20:44:37.896Z,4.20
2023-02-21T20:47:05.894Z,3.88
2023-02-21T20:49:35.208Z,3.80
2023-02-21T20:52:02.422Z,3.72
2023-02-21T20:54:29.121Z,5.32
2023-02-21T20:56:57.638Z,7.60
2023-02-21T20:59:27.208Z,10.38
2023-02-21T21:01:54.399Z,8.15
2023-02-21T21:04:30.264Z,9.52
2023-02-21T21:07:03.404Z,10.93
2023-02-21T21:09:34.192Z,6.30
2023-02-21T21:12:02.917Z,5.03
2023-02-21T21:14:35.828Z,5.05
2023-02-21T21:17:03.524Z,6.40
2023-02-21T21:19:34.473Z,9.55
2023-02-21T21:22:02.890Z,9.82
2023-02-21T21:24:31.692Z,5.85
2023-02-21T21:27:06.338Z,5.32
2023-02-21T21:29:36.399Z,5.07
2023-02-21T21:32:05.242Z,4.30
2023-02-21T21:34:32.270Z,4.00
2023-02-21T21:37:01.724Z,4.10
2023-02-21T21:39:28.428Z,4.55
2023-02-21T21:41:58.704Z,3.80
2023-02-21T21:44:26.916Z,4.22
2023-02-21T21:46:54.097Z,4.10
2023-02-21T21:49:22.972Z,3.53
2023-02-21T21:51:49.890Z,3.42
2023-02-21T21:54:20.604Z,3.17
2023-02-21T21:56:48.233Z,3.10
2023-02-21T21:59:20.341Z,3.33
2023-02-21T22:01:48.168Z,3.50
2023-02-21T22:04:14.871Z,3.83
2023-02-21T22:06:42.839Z,2.95
2023-02-21T22:09:10.029Z,3.30
2023-02-21T22:11:36.623Z,3.40
2023-02-21T22:14:03.592Z,3.10
2023-02-21T22:16:37.862Z,3.50
2023-02-21T22:19:04.937Z,3.42
2023-02-21T22:21:31.925Z,3.45
2023-02-21T22:23:58.820Z,3.75
2023-02-21T22:26:26.997Z,2.85
2023-02-21T22:28:54.354Z,2.80
2023-02-21T22:31:23.220Z,3.15
2023-02-21T22:33:50.140Z,3.55
2023-02-21T22:36:18.175Z,3.03
2023-02-21T22:38:47.668Z,3.00
2023-02-21T22:41:28.333Z,4.10
2023-02-21T22:43:55.473Z,3.22
2023-02-21T22:46:25.042Z,3.75
2023-02-21T22:48:51.692Z,3.00
2023-02-21T22:51:19.781Z,3.25
2023-02-21T22:53:50.151Z,3.92
2023-02-21T22:56:23.439Z,3.78
2023-02-21T22:58:51.395Z,4.75
2023-02-21T23:01:20.879Z,3.65
2023-02-21T23:03:47.982Z,4.03
2023-02-21T23:06:14.898Z,3.85
2023-02-21T23:08:46.394Z,4.38
2023-02-21T23:11:18.724Z,3.83
2023-02-21T23:13:47.001Z,3.88
2023-02-21T23:16:21.875Z,3.72
2023-02-21T23:18:48.442Z,3.85
2023-02-21T23:21:22.806Z,3.58
2023-02-21T23:23:53.097Z,4.35
2023-02-21T23:26:20.249Z,4.50
2023-02-21T23:28:49.234Z,3.92
2023-02-21T23:31:18.581Z,3.67
2023-02-21T23:33:53.307Z,4.20
2023-02-21T23:36:22.582Z,4.25
2023-02-21T23:38:50.648Z,4.03
2023-02-21T23:41:18.124Z,4.20
2023-02-21T23:43:48.439Z,3.90
2023-02-21T23:46:22.031Z,4.43
2023-02-21T23:48:49.350Z,4.35
2023-02-21T23:51:17.662Z,4.30
2023-02-21T23:53:44.922Z,4.13
2023-02-21T23:56:13.261Z,4.45
2023-02-21T23:58:44.282Z,3.60
